Marigold, California
Current Conditions -  °F | °C
As of 10:58 AM on Thursday 30 Oct 2014 (Local Time) from KRIV Reporting Station
Clear Clear  
Wind Chill: 74°   Ceiling: Unl
Heat Index: 74°   Visibility: 10mi
Dew Point: 44°   Wind: 3mph
Humidity: 35%   Direction: 90°E
Pressure: 30.02"   Gusts: NA
Location:  34.0057°N, 117.15°W
Report Text: KRIV 301758Z AUTO 09003KT 10SM CLR 23/07 A3002 RMK AO2 SLP157 T02330068 10233 20092 50000
Loading
Personal Weather Stations






























Interactive Weather Map
Tropical Storm Tracking
New forecast layout! Learn more

10-Day Weather Forecast

Advertisements
Track Severe Weather on mobile